createdAt,value
2022-08-17T04:01:10.496Z,7.60
2022-08-17T04:04:13.832Z,7.68
2022-08-17T04:07:16.329Z,7.78
2022-08-17T04:10:18.680Z,7.45
2022-08-17T04:13:25.461Z,7.50
2022-08-17T04:16:28.982Z,7.80
2022-08-17T04:19:31.153Z,7.18
2022-08-17T04:22:34.361Z,7.32
2022-08-17T04:25:39.671Z,7.20
2022-08-17T04:28:43.418Z,7.47
2022-08-17T04:31:45.542Z,7.18
2022-08-17T04:34:47.846Z,8.27
2022-08-17T04:37:50.929Z,7.97
2022-08-17T04:41:12.678Z,7.82
2022-08-17T04:44:14.803Z,7.68
2022-08-17T04:47:37.627Z,8.40
2022-08-17T04:50:43.697Z,7.72
2022-08-17T04:53:54.461Z,7.70
2022-08-17T04:56:57.138Z,8.25
2022-08-17T04:59:59.467Z,7.32
2022-08-17T05:03:01.893Z,7.28
2022-08-17T05:06:04.514Z,8.57
2022-08-17T05:09:06.717Z,7.90
2022-08-17T05:12:09.856Z,7.75
2022-08-17T05:15:16.010Z,8.48
2022-08-17T05:18:18.721Z,7.80
2022-08-17T05:21:23.117Z,7.95
2022-08-17T05:24:42.756Z,8.20
2022-08-17T05:27:45.937Z,8.23
2022-08-17T05:30:49.542Z,9.13
2022-08-17T05:33:52.433Z,8.40
2022-08-17T05:36:54.756Z,8.25
2022-08-17T05:39:56.898Z,7.90
2022-08-17T05:43:16.122Z,8.18
2022-08-17T05:46:30.591Z,9.52
2022-08-17T05:49:33.346Z,8.63
2022-08-17T05:53:00.618Z,9.00
2022-08-17T05:56:29.475Z,8.73
2022-08-17T05:59:58.279Z,7.45
2022-08-17T06:03:11.241Z,7.47
2022-08-17T06:06:32.009Z,8.45
2022-08-17T06:09:37.014Z,7.90
2022-08-17T06:13:00.210Z,8.88
2022-08-17T06:16:32.880Z,8.02
2022-08-17T06:19:44.043Z,8.18
2022-08-17T06:22:50.772Z,8.43
2022-08-17T06:25:58.645Z,8.57
2022-08-17T06:29:24.514Z,8.30
2022-08-17T06:32:26.865Z,8.40
2022-08-17T06:35:37.809Z,8.60
2022-08-17T06:38:49.960Z,8.70
2022-08-17T06:43:02.570Z,8.48
2022-08-17T06:45:49.273Z,9.43
2022-08-17T06:48:57.515Z,8.10
2022-08-17T06:52:42.303Z,8.13
2022-08-17T06:56:01.271Z,8.07
2022-08-17T06:59:07.459Z,8.25
2022-08-17T07:02:17.957Z,8.02
2022-08-17T07:05:26.826Z,7.37
2022-08-17T07:08:55.067Z,7.97
2022-08-17T07:12:22.078Z,7.82
2022-08-17T07:15:32.742Z,7.28
2022-08-17T07:18:35.134Z,7.65
2022-08-17T07:21:49.631Z,8.48
2022-08-17T07:25:00.755Z,8.27
2022-08-17T07:28:07.327Z,8.13
2022-08-17T07:31:13.272Z,7.80
2022-08-17T07:34:15.450Z,8.50
2022-08-17T07:37:19.395Z,7.47
2022-08-17T07:40:27.094Z,7.85
2022-08-17T07:43:37.899Z,8.40
2022-08-17T07:47:10.874Z,7.75
2022-08-17T07:50:28.834Z,7.82
2022-08-17T07:53:31.894Z,7.40
2022-08-17T07:56:54.335Z,7.87
2022-08-17T08:00:03.108Z,7.75
2022-08-17T08:03:18.416Z,7.40
2022-08-17T08:06:24.808Z,7.68
2022-08-17T08:09:39.120Z,7.68
2022-08-17T08:12:42.971Z,7.40
2022-08-17T08:15:53.704Z,8.05
2022-08-17T08:19:00.582Z,7.28
2022-08-17T08:22:11.161Z,7.70
2022-08-17T08:25:16.635Z,7.72
2022-08-17T08:28:27.348Z,7.85
2022-08-17T08:32:07.593Z,7.82
2022-08-17T08:35:32.982Z,7.57
2022-08-17T08:38:56.581Z,7.28
2022-08-17T08:42:18.182Z,7.97
2022-08-17T08:45:32.786Z,7.68
2022-08-17T08:49:06.532Z,7.62
2022-08-17T08:52:33.998Z,7.90
2022-08-17T08:56:11.546Z,7.57
2022-08-17T08:59:32.882Z,7.80
2022-08-17T09:02:51.487Z,7.97
2022-08-17T09:06:37.439Z,7.40
2022-08-17T09:09:48.285Z,8.32
2022-08-17T09:13:22.059Z,7.87
2022-08-17T09:16:33.157Z,6.90
2022-08-17T09:19:42.561Z,7.18
2022-08-17T09:22:52.658Z,6.82
2022-08-17T09:26:00.622Z,7.70
2022-08-17T09:29:09.927Z,7.05
2022-08-17T09:32:19.406Z,7.25
2022-08-17T09:35:25.133Z,7.43
2022-08-17T09:39:06.079Z,7.53
2022-08-17T09:42:26.119Z,7.43
2022-08-17T09:45:37.661Z,7.62
2022-08-17T09:49:03.288Z,7.25
2022-08-17T09:52:20.339Z,7.45
2022-08-17T09:55:32.427Z,7.53
2022-08-17T09:59:08.545Z,6.75
2022-08-17T10:02:32.631Z,6.80
2022-08-17T10:05:41.302Z,6.97
2022-08-17T10:09:04.491Z,7.32
2022-08-17T10:12:46.997Z,6.45
2022-08-17T10:15:54.673Z,6.78
2022-08-17T10:19:06.313Z,6.75
2022-08-17T10:22:44.470Z,6.32
2022-08-17T10:26:13.123Z,6.40
2022-08-17T10:29:28.962Z,5.32
2022-08-17T10:32:46.834Z,5.25
2022-08-17T10:36:01.187Z,5.30
2022-08-17T10:39:27.728Z,5.07
2022-08-17T10:42:43.658Z,5.00
2022-08-17T10:45:45.895Z,4.68
2022-08-17T10:49:14.950Z,4.57
2022-08-17T10:52:20.270Z,4.30
2022-08-17T10:55:27.729Z,5.05
2022-08-17T10:58:38.581Z,4.47
2022-08-17T11:01:43.325Z,4.60
2022-08-17T11:04:51.451Z,4.60
2022-08-17T11:08:18.138Z,4.87
2022-08-17T11:11:43.359Z,4.40
2022-08-17T11:14:54.189Z,4.50
2022-08-17T11:18:15.461Z,4.70
2022-08-17T11:21:47.515Z,4.10
2022-08-17T11:24:52.914Z,4.90
2022-08-17T11:31:38.645Z,4.40
2022-08-17T11:34:44.487Z,4.55
2022-08-17T11:37:55.266Z,5.22
2022-08-17T11:41:17.591Z,5.78
2022-08-17T11:44:45.312Z,5.62
2022-08-17T11:48:28.768Z,5.20
2022-08-17T11:52:00.312Z,5.25
2022-08-17T11:55:33.528Z,5.32
2022-08-17T11:58:29.332Z,5.10
2022-08-17T12:01:31.457Z,5.75
2022-08-17T12:04:35.614Z,5.45
2022-08-17T12:08:06.794Z,6.07
2022-08-17T12:11:56.359Z,5.47
2022-08-17T12:15:12.658Z,4.78
2022-08-17T12:18:32.328Z,5.07
2022-08-17T12:21:45.112Z,5.03
2022-08-17T12:25:02.773Z,4.70
2022-08-17T12:28:19.944Z,4.50
2022-08-17T12:31:29.490Z,4.47
2022-08-17T12:34:39.779Z,4.50
2022-08-17T12:37:47.707Z,4.72
2022-08-17T12:40:58.115Z,4.35
2022-08-17T12:44:02.668Z,4.25
2022-08-17T12:47:19.442Z,4.17
2022-08-17T12:50:28.881Z,4.37
2022-08-17T12:53:35.724Z,4.18
2022-08-17T12:56:38.279Z,4.28
2022-08-17T12:59:50.353Z,4.20
2022-08-17T13:03:02.441Z,4.53
2022-08-17T13:06:07.946Z,3.90
2022-08-17T13:09:40.354Z,4.57
2022-08-17T13:12:43.002Z,4.53
2022-08-17T13:15:54.841Z,4.37
2022-08-17T13:19:09.571Z,4.12
2022-08-17T13:22:12.801Z,4.05
2022-08-17T13:25:16.671Z,4.37
2022-08-17T13:28:35.793Z,4.03
2022-08-17T13:31:52.167Z,4.07
2022-08-17T13:35:15.463Z,3.67
2022-08-17T13:38:45.479Z,4.25
2022-08-17T13:41:49.743Z,3.60
2022-08-17T13:44:51.797Z,4.20
2022-08-17T13:48:13.537Z,3.90
2022-08-17T13:51:25.897Z,3.87
2022-08-17T13:54:33.187Z,3.35
2022-08-17T13:57:36.275Z,3.65
2022-08-17T14:00:39.419Z,3.30
2022-08-17T14:03:41.747Z,3.50
2022-08-17T14:07:23.158Z,3.60
2022-08-17T14:10:26.066Z,3.87
2022-08-17T14:13:28.595Z,3.47
2022-08-17T14:16:30.930Z,3.30
2022-08-17T14:19:33.059Z,3.40
2022-08-17T14:22:38.184Z,3.35
2022-08-17T14:25:40.510Z,3.33
2022-08-17T14:28:54.694Z,3.42
2022-08-17T14:32:04.237Z,3.80
2022-08-17T14:35:09.024Z,3.30
2022-08-17T14:38:11.082Z,3.35
2022-08-17T14:41:21.470Z,3.85
2022-08-17T14:44:24.513Z,3.65
2022-08-17T14:47:26.931Z,3.90
2022-08-17T14:50:29.004Z,3.42
